Time;durP1;ratioP1;P1;durP2;ratioP2;P2;SDS_P1;SDS_P2;PMS_P1;PMS_P2;Temp;Humidity;BMP_temperature;BMP_pressure;BME280_temperature;BME280_humidity;BME280_pressure;Samples;Min_cycle;Max_cycle;Signal;HPM_P1;HPM_P2
2021/03/06 00:00:21;;;;;;;7.57;2.72;;;;;;;;;;5072510;28;20021;-74
2021/03/06 00:02:47;;;;;;;6.70;2.10;;;;;;;;;;5054217;28;20020;-74
2021/03/06 00:05:14;;;;;;;13.48;2.60;;;;;;;;;;5053895;28;20024;-75
2021/03/06 00:07:40;;;;;;;9.15;2.40;;;;;;;;;;5072261;28;20020;-75
2021/03/06 00:10:10;;;;;;;8.15;2.30;;;;;;;;;;5072082;28;20013;-74
2021/03/06 00:12:36;;;;;;;7.43;2.00;;;;;;;;;;5072221;28;20028;-74
2021/03/06 00:15:02;;;;;;;6.75;2.25;;;;;;;;;;5053955;28;20020;-75
2021/03/06 00:17:28;;;;;;;10.13;2.67;;;;;;;;;;5054349;28;20579;-75
2021/03/06 00:19:54;;;;;;;7.35;2.13;;;;;;;;;;5053956;28;20455;-75
2021/03/06 00:22:20;;;;;;;6.85;1.85;;;;;;;;;;5072093;28;20025;-75
2021/03/06 00:24:46;;;;;;;9.20;4.32;;;;;;;;;;5054058;28;20052;-75
2021/03/06 00:27:12;;;;;;;16.80;4.57;;;;;;;;;;5072059;28;20008;-75
2021/03/06 00:29:38;;;;;;;10.85;3.08;;;;;;;;;;5071711;28;20013;-75
2021/03/06 00:32:04;;;;;;;5.32;2.10;;;;;;;;;;5053822;28;20024;-75
2021/03/06 00:34:30;;;;;;;10.43;2.95;;;;;;;;;;5053815;28;20040;-75
2021/03/06 00:36:56;;;;;;;10.48;3.20;;;;;;;;;;5071673;28;20063;-75
2021/03/06 00:39:22;;;;;;;19.63;5.55;;;;;;;;;;5053868;28;20021;-75
2021/03/06 00:41:48;;;;;;;11.98;4.13;;;;;;;;;;5053928;28;20020;-75
2021/03/06 00:44:14;;;;;;;11.30;3.78;;;;;;;;;;5071327;28;20021;-75
2021/03/06 00:46:41;;;;;;;14.85;4.22;;;;;;;;;;5053738;28;20021;-75
2021/03/06 00:49:07;;;;;;;9.68;2.95;;;;;;;;;;5053318;28;20016;-75
2021/03/06 00:51:33;;;;;;;9.23;2.88;;;;;;;;;;5071593;28;20098;-75
2021/03/06 00:53:59;;;;;;;9.07;2.38;;;;;;;;;;5075108;28;20020;-75
2021/03/06 00:56:25;;;;;;;9.73;2.70;;;;;;;;;;5057487;28;20020;-75
2021/03/06 00:58:51;;;;;;;8.65;2.85;;;;;;;;;;5075455;28;20416;-75
2021/03/06 01:01:17;;;;;;;9.75;2.63;;;;;;;;;;5075152;28;20341;-75
2021/03/06 01:03:43;;;;;;;14.65;3.90;;;;;;;;;;5057295;28;20482;-75
2021/03/06 01:06:09;;;;;;;7.15;2.35;;;;;;;;;;5057123;28;20074;-75
2021/03/06 01:08:35;;;;;;;16.17;2.85;;;;;;;;;;5057047;28;20035;-75
2021/03/06 01:11:02;;;;;;;6.82;2.30;;;;;;;;;;5075082;28;20043;-75
2021/03/06 01:13:29;;;;;;;6.07;1.60;;;;;;;;;;5075317;28;20060;-75
2021/03/06 01:15:55;;;;;;;16.90;2.95;;;;;;;;;;5057129;28;20028;-75
2021/03/06 01:18:21;;;;;;;11.55;2.13;;;;;;;;;;5074996;28;20013;-75
2021/03/06 01:20:48;;;;;;;9.18;1.90;;;;;;;;;;5056993;28;20116;-75
2021/03/06 01:23:14;;;;;;;9.70;2.38;;;;;;;;;;5056807;28;20020;-76
2021/03/06 01:25:40;;;;;;;6.55;1.70;;;;;;;;;;5057078;28;20036;-74
2021/03/06 01:28:06;;;;;;;9.88;2.63;;;;;;;;;;5056781;28;20017;-74
2021/03/06 01:30:32;;;;;;;8.48;1.98;;;;;;;;;;5074866;28;20066;-74
2021/03/06 01:32:58;;;;;;;10.32;2.00;;;;;;;;;;5074783;28;20429;-74
2021/03/06 01:35:25;;;;;;;7.53;2.40;;;;;;;;;;5056677;28;20090;-75
2021/03/06 01:37:52;;;;;;;9.23;2.25;;;;;;;;;;5056833;28;20016;-74
2021/03/06 01:40:20;;;;;;;6.30;1.80;;;;;;;;;;5074601;28;20020;-74
2021/03/06 01:42:46;;;;;;;8.25;2.05;;;;;;;;;;5074451;28;20029;-75
2021/03/06 01:45:12;;;;;;;5.97;1.70;;;;;;;;;;5056178;28;20017;-75
2021/03/06 01:47:38;;;;;;;7.35;2.47;;;;;;;;;;5074445;28;20020;-75
2021/03/06 01:50:05;;;;;;;12.38;2.72;;;;;;;;;;5073630;28;20090;-75
2021/03/06 01:52:31;;;;;;;10.02;2.58;;;;;;;;;;5056015;28;20041;-75
2021/03/06 01:54:57;;;;;;;6.03;1.85;;;;;;;;;;5074225;28;20012;-75
2021/03/06 01:57:24;;;;;;;5.65;2.00;;;;;;;;;;5056189;28;20027;-76
2021/03/06 01:59:50;;;;;;;11.65;2.10;;;;;;;;;;5074557;28;20506;-76
2021/03/06 02:02:16;;;;;;;7.00;1.58;;;;;;;;;;5055940;28;20052;-76
2021/03/06 02:04:42;;;;;;;6.18;1.98;;;;;;;;;;5073757;28;20016;-75
2021/03/06 02:07:08;;;;;;;7.47;2.05;;;;;;;;;;5055997;28;20436;-74
2021/03/06 02:09:34;;;;;;;8.52;2.55;;;;;;;;;;5074197;28;20020;-75
2021/03/06 02:12:07;;;;;;;7.97;2.03;;;;;;;;;;5056184;28;20028;-75
2021/03/06 02:14:45;;;;;;;8.20;2.20;;;;;;;;;;5073732;28;20062;-74
2021/03/06 02:17:14;;;;;;;5.18;1.55;;;;;;;;;;5055668;28;20089;-74
2021/03/06 02:20:08;;;;;;;10.50;2.28;;;;;;;;;;5074209;28;20027;-74
2021/03/06 02:22:44;;;;;;;5.35;2.33;;;;;;;;;;5055950;28;20028;-74
2021/03/06 02:25:34;;;;;;;9.07;3.08;;;;;;;;;;5055662;28;20027;-74
2021/03/06 02:28:00;;;;;;;;;;;;;;;;;;5074099;28;20024;-74
2021/03/06 02:30:30;;;;;;;8.73;2.20;;;;;;;;;;5055556;28;19910;-75
2021/03/06 02:32:56;;;;;;;11.23;2.58;;;;;;;;;;5055663;28;20029;-74
2021/03/06 02:35:23;;;;;;;10.60;2.28;;;;;;;;;;5055334;28;20463;-74
2021/03/06 02:38:09;;;;;;;10.15;2.72;;;;;;;;;;5055495;28;20027;-74
2021/03/06 02:40:37;;;;;;;6.47;2.25;;;;;;;;;;5055105;28;20039;-75
2021/03/06 02:43:04;;;;;;;8.15;1.77;;;;;;;;;;5055298;28;20017;-75
2021/03/06 02:45:30;;;;;;;9.93;2.00;;;;;;;;;;5055491;28;20248;-75
2021/03/06 02:47:57;;;;;;;6.72;2.45;;;;;;;;;;5055381;28;20020;-75
2021/03/06 02:50:23;;;;;;;6.75;1.95;;;;;;;;;;5055117;28;20805;-74
2021/03/06 02:52:49;;;;;;;17.42;3.38;;;;;;;;;;5072687;28;20040;-74
2021/03/06 02:55:15;;;;;;;8.68;2.05;;;;;;;;;;5072927;28;20020;-74
2021/03/06 02:57:44;;;;;;;10.60;1.60;;;;;;;;;;5073164;28;20016;-74
2021/03/06 03:00:34;;;;;;;6.93;1.85;;;;;;;;;;5054844;28;20373;-74
2021/03/06 03:03:06;;;;;;;7.43;1.77;;;;;;;;;;5044751;28;20043;-74
2021/03/06 03:05:37;;;;;;;8.18;2.03;;;;;;;;;;5055164;28;20111;-74
2021/03/06 03:08:06;;;;;;;7.97;2.03;;;;;;;;;;5072982;28;20066;-74
2021/03/06 03:10:34;;;;;;;8.05;2.25;;;;;;;;;;5054962;28;20108;-74
2021/03/06 03:13:08;;;;;;;9.25;2.53;;;;;;;;;;5054770;28;20035;-74
2021/03/06 03:15:42;;;;;;;7.30;1.77;;;;;;;;;;5053974;28;20111;-74
2021/03/06 03:18:14;;;;;;;7.20;2.00;;;;;;;;;;5054653;28;20017;-74
2021/03/06 03:20:43;;;;;;;6.05;2.28;;;;;;;;;;5054631;28;20028;-74
2021/03/06 03:23:30;;;;;;;13.73;2.00;;;;;;;;;;5054492;28;20056;-75
2021/03/06 03:25:56;;;;;;;10.50;2.28;;;;;;;;;;5054503;28;20021;-75
2021/03/06 03:28:23;;;;;;;7.13;1.92;;;;;;;;;;5053984;28;20047;-75
2021/03/06 03:30:50;;;;;;;13.60;2.58;;;;;;;;;;5054400;28;20031;-75
2021/03/06 03:33:16;;;;;;;7.07;2.50;;;;;;;;;;5072013;28;20063;-75
2021/03/06 03:35:45;;;;;;;9.90;2.05;;;;;;;;;;5054541;28;20032;-75
2021/03/06 03:38:11;;;;;;;11.30;2.08;;;;;;;;;;5072259;28;20023;-75
2021/03/06 03:40:37;;;;;;;5.55;1.63;;;;;;;;;;5072318;28;20066;-75
2021/03/06 03:43:04;;;;;;;11.75;2.30;;;;;;;;;;5072547;28;20013;-74
2021/03/06 03:45:31;;;;;;;13.80;2.30;;;;;;;;;;5054228;28;20090;-75
2021/03/06 03:47:57;;;;;;;11.15;1.90;;;;;;;;;;5054313;28;20025;-75
2021/03/06 03:50:25;;;;;;;9.52;2.00;;;;;;;;;;5054156;28;20056;-75
2021/03/06 03:52:51;;;;;;;8.10;1.80;;;;;;;;;;5050793;28;20067;-75
2021/03/06 03:55:19;;;;;;;10.15;1.63;;;;;;;;;;5052317;28;20028;-75
2021/03/06 03:57:45;;;;;;;8.00;1.70;;;;;;;;;;5050930;28;20043;-74
2021/03/06 04:00:13;;;;;;;7.47;1.77;;;;;;;;;;5050654;28;20013;-75
2021/03/06 04:02:40;;;;;;;9.70;2.05;;;;;;;;;;5050922;28;20096;-74
2021/03/06 04:05:07;;;;;;;9.82;2.35;;;;;;;;;;5052246;28;20456;-74
2021/03/06 04:07:45;;;;;;;10.98;1.95;;;;;;;;;;5052227;28;20071;-74
2021/03/06 04:10:12;;;;;;;6.70;1.70;;;;;;;;;;5052015;28;20468;-75
2021/03/06 04:12:39;;;;;;;7.35;1.70;;;;;;;;;;5050810;28;20024;-75
2021/03/06 04:15:05;;;;;;;14.43;2.67;;;;;;;;;;5050821;28;20028;-75
2021/03/06 04:17:31;;;;;;;15.68;2.22;;;;;;;;;;5051749;28;20009;-75
2021/03/06 04:19:57;;;;;;;8.60;2.45;;;;;;;;;;5050781;28;20032;-76
2021/03/06 04:22:23;;;;;;;7.28;2.10;;;;;;;;;;5051794;28;20017;-76
2021/03/06 04:24:49;;;;;;;11.10;2.13;;;;;;;;;;5052077;28;20023;-75
2021/03/06 04:27:15;;;;;;;7.90;2.25;;;;;;;;;;5054092;28;20039;-75
2021/03/06 04:29:41;;;;;;;12.55;2.85;;;;;;;;;;5056297;28;20108;-75
2021/03/06 04:32:07;;;;;;;12.60;2.30;;;;;;;;;;5054712;28;20060;-75
2021/03/06 04:34:33;;;;;;;9.45;2.28;;;;;;;;;;5055561;28;20025;-75
2021/03/06 04:37:00;;;;;;;9.82;3.03;;;;;;;;;;5054571;28;20032;-74
2021/03/06 04:39:26;;;;;;;11.05;2.53;;;;;;;;;;5055596;28;20013;-74
2021/03/06 04:41:52;;;;;;;9.73;2.42;;;;;;;;;;5054586;28;20357;-75
2021/03/06 04:44:18;;;;;;;13.77;2.70;;;;;;;;;;5054205;28;20025;-74
2021/03/06 04:46:44;;;;;;;11.10;2.58;;;;;;;;;;5055652;28;20029;-74
2021/03/06 04:49:10;;;;;;;9.10;1.90;;;;;;;;;;5054308;28;20028;-76
2021/03/06 04:51:36;;;;;;;8.85;2.08;;;;;;;;;;5060780;28;20082;-79
2021/03/06 04:54:02;;;;;;;9.75;2.00;;;;;;;;;;5057546;28;20024;-79
2021/03/06 04:56:28;;;;;;;9.20;2.17;;;;;;;;;;5057304;28;20021;-78
2021/03/06 04:58:54;;;;;;;7.85;2.35;;;;;;;;;;5075682;28;20016;-79
2021/03/06 05:01:20;;;;;;;10.00;2.03;;;;;;;;;;5057130;28;20021;-79
2021/03/06 05:03:46;;;;;;;11.10;2.85;;;;;;;;;;5057351;28;20115;-79
2021/03/06 05:06:12;;;;;;;7.50;2.15;;;;;;;;;;5057120;28;20017;-79
2021/03/06 05:08:42;;;;;;;8.65;1.90;;;;;;;;;;5057253;28;20021;-78
2021/03/06 05:11:08;;;;;;;8.63;2.42;;;;;;;;;;5057337;28;20457;-78
2021/03/06 05:13:35;;;;;;;8.82;2.50;;;;;;;;;;5056925;28;20025;-78
2021/03/06 05:16:02;;;;;;;11.98;2.28;;;;;;;;;;5057429;28;20052;-78
2021/03/06 05:18:28;;;;;;;11.15;2.08;;;;;;;;;;5056753;28;20112;-78
2021/03/06 05:20:54;;;;;;;10.23;2.25;;;;;;;;;;5057049;28;20052;-78
2021/03/06 05:23:20;;;;;;;7.43;1.95;;;;;;;;;;5074824;28;20573;-78
2021/03/06 05:25:46;;;;;;;22.48;4.65;;;;;;;;;;5074938;28;20078;-78
2021/03/06 05:28:12;;;;;;;13.60;3.08;;;;;;;;;;5057039;28;20012;-78
2021/03/06 05:30:38;;;;;;;15.00;3.78;;;;;;;;;;5056808;28;20044;-77
2021/03/06 05:33:04;;;;;;;10.88;2.67;;;;;;;;;;5056782;28;20400;-78
2021/03/06 05:35:30;;;;;;;10.45;3.20;;;;;;;;;;5056479;28;20025;-78
2021/03/06 05:37:56;;;;;;;13.55;3.28;;;;;;;;;;5055914;28;20075;-77
2021/03/06 05:40:22;;;;;;;13.13;3.05;;;;;;;;;;5056557;28;20017;-78
2021/03/06 05:42:49;;;;;;;15.23;3.78;;;;;;;;;;5074832;28;20025;-78
2021/03/06 05:45:15;;;;;;;9.63;3.33;;;;;;;;;;5056339;28;20356;-78
2021/03/06 05:47:41;;;;;;;8.85;3.08;;;;;;;;;;5056583;28;20457;-78
2021/03/06 05:50:07;;;;;;;12.63;2.97;;;;;;;;;;5074545;28;20221;-78
2021/03/06 05:52:34;;;;;;;12.50;3.33;;;;;;;;;;5056091;28;20037;-78
2021/03/06 05:55:01;;;;;;;9.85;3.35;;;;;;;;;;5056415;28;20024;-78
2021/03/06 05:57:27;;;;;;;14.57;3.60;;;;;;;;;;5074183;28;20017;-79
2021/03/06 05:59:54;;;;;;;9.65;2.25;;;;;;;;;;5056285;28;20034;-78
2021/03/06 06:02:23;;;;;;;9.13;2.63;;;;;;;;;;5055978;28;20031;-78
2021/03/06 06:04:49;;;;;;;8.02;2.30;;;;;;;;;;5056202;28;20024;-78
2021/03/06 06:07:16;;;;;;;13.13;2.28;;;;;;;;;;5056185;28;20035;-78
2021/03/06 06:09:42;;;;;;;10.20;2.63;;;;;;;;;;5056221;28;20522;-78
2021/03/06 06:12:08;;;;;;;9.93;2.30;;;;;;;;;;5056300;28;20048;-78
2021/03/06 06:14:34;;;;;;;10.45;2.28;;;;;;;;;;5073797;28;20024;-78
2021/03/06 06:17:07;;;;;;;12.68;2.50;;;;;;;;;;5055852;28;20028;-78
2021/03/06 06:19:34;;;;;;;9.48;2.72;;;;;;;;;;5055752;28;20016;-78
2021/03/06 06:22:00;;;;;;;12.52;2.70;;;;;;;;;;5055920;28;20024;-78
2021/03/06 06:24:27;;;;;;;11.60;2.90;;;;;;;;;;5073871;28;20017;-78
2021/03/06 06:26:57;;;;;;;11.88;2.20;;;;;;;;;;5055827;28;20020;-78
2021/03/06 06:29:41;;;;;;;12.45;3.47;;;;;;;;;;5073820;28;20441;-78
2021/03/06 06:32:09;;;;;;;7.13;1.90;;;;;;;;;;5073747;28;20096;-78
2021/03/06 06:34:36;;;;;;;12.63;2.97;;;;;;;;;;5055515;28;20031;-78
2021/03/06 06:37:12;;;;;;;10.73;2.28;;;;;;;;;;5073588;28;20103;-78
2021/03/06 06:39:39;;;;;;;8.13;2.00;;;;;;;;;;5055158;28;20457;-78
2021/03/06 06:42:05;;;;;;;8.23;2.20;;;;;;;;;;5055334;28;20021;-78
2021/03/06 06:44:31;;;;;;;12.85;2.20;;;;;;;;;;5055054;28;20024;-79
2021/03/06 06:46:58;;;;;;;9.88;2.08;;;;;;;;;;5073161;28;20091;-79
2021/03/06 06:49:26;;;;;;;9.68;2.10;;;;;;;;;;5072309;28;20013;-78
2021/03/06 06:51:58;;;;;;;9.68;2.70;;;;;;;;;;5054327;28;20134;-78
2021/03/06 06:54:24;;;;;;;16.38;2.38;;;;;;;;;;5054237;28;20025;-78
2021/03/06 06:56:51;;;;;;;14.52;2.80;;;;;;;;;;5054523;28;20070;-80
2021/03/06 06:59:18;;;;;;;11.57;3.05;;;;;;;;;;5054419;28;20021;-78
2021/03/06 07:01:44;;;;;;;14.38;2.70;;;;;;;;;;5054348;28;20500;-78
2021/03/06 07:04:11;;;;;;;8.05;2.35;;;;;;;;;;5054331;28;20508;-78
2021/03/06 07:06:37;;;;;;;13.10;2.63;;;;;;;;;;5054187;28;20016;-79
2021/03/06 07:09:14;;;;;;;13.70;2.22;;;;;;;;;;5072492;28;20436;-79
2021/03/06 07:11:41;;;;;;;12.85;3.50;;;;;;;;;;5054125;28;20020;-79
2021/03/06 07:14:07;;;;;;;9.05;3.00;;;;;;;;;;5054048;28;20023;-80
2021/03/06 07:16:52;;;;;;;15.93;3.33;;;;;;;;;;5071445;28;20100;-80
2021/03/06 07:19:18;;;;;;;6.32;2.80;;;;;;;;;;5053763;28;20058;-79
2021/03/06 07:21:50;;;;;;;17.10;3.50;;;;;;;;;;5053702;28;20043;-79
2021/03/06 07:24:16;;;;;;;12.98;3.95;;;;;;;;;;5053444;28;20020;-79
2021/03/06 07:26:42;;;;;;;14.98;3.47;;;;;;;;;;5072025;28;20475;-79
2021/03/06 07:29:09;;;;;;;8.05;3.15;;;;;;;;;;5053589;28;20142;-79
2021/03/06 07:31:37;;;;;;;12.63;3.10;;;;;;;;;;5053486;28;20020;-78
2021/03/06 07:34:03;;;;;;;18.40;4.25;;;;;;;;;;5053682;28;20024;-79
2021/03/06 07:36:29;;;;;;;14.02;3.30;;;;;;;;;;5053418;28;20522;-77
2021/03/06 07:38:59;;;;;;;13.82;3.67;;;;;;;;;;5053546;28;20457;-77
2021/03/06 07:41:26;;;;;;;14.52;3.95;;;;;;;;;;5053462;28;20013;-78
2021/03/06 07:43:52;;;;;;;15.40;2.80;;;;;;;;;;5071255;28;20017;-78
2021/03/06 07:46:18;;;;;;;12.52;3.50;;;;;;;;;;5053190;28;20442;-78
2021/03/06 07:48:48;;;;;;;9.05;2.83;;;;;;;;;;5071166;28;20016;-78
2021/03/06 07:51:14;;;;;;;;;;;;;;;;;;5071530;28;20017;-77
2021/03/06 07:53:44;;;;;;;6.53;2.53;;;;;;;;;;5053719;28;19912;-77
2021/03/06 07:56:10;;;;;;;7.00;2.40;;;;;;;;;;5054049;28;20432;-77
2021/03/06 07:58:56;;;;;;;10.65;3.08;;;;;;;;;;5053883;28;20448;-77
2021/03/06 08:01:29;;;;;;;7.90;2.50;;;;;;;;;;5053211;28;20115;-77
2021/03/06 08:03:55;;;;;;;14.15;4.05;;;;;;;;;;5071906;28;20457;-77
2021/03/06 08:06:22;;;;;;;9.68;2.42;;;;;;;;;;5053678;28;20017;-77
2021/03/06 08:08:48;;;;;;;5.20;1.90;;;;;;;;;;5053941;28;20023;-77
2021/03/06 08:11:18;;;;;;;9.73;2.30;;;;;;;;;;5054021;28;20506;-78
2021/03/06 08:13:46;;;;;;;11.38;2.35;;;;;;;;;;5053758;28;20230;-77
2021/03/06 08:18:54;;;;;;;6.45;2.00;;;;;;;;;;5071673;28;20074;-78
2021/03/06 08:21:30;;;;;;;8.20;2.40;;;;;;;;;;5053567;28;20025;-77
2021/03/06 08:26:40;;;;;;;7.50;1.50;;;;;;;;;;5071443;28;20688;-75
2021/03/06 08:29:26;;;;;;;4.85;1.65;;;;;;;;;;5053720;28;20020;-75
2021/03/06 08:32:00;;;;;;;7.10;1.63;;;;;;;;;;5040023;28;20024;-75
2021/03/06 08:34:27;;;;;;;14.52;1.83;;;;;;;;;;5053152;28;20516;-75
2021/03/06 08:37:19;;;;;;;8.32;1.70;;;;;;;;;;5071080;28;20021;-75
2021/03/06 08:39:51;;;;;;;7.03;1.73;;;;;;;;;;5053208;28;20020;-77
2021/03/06 08:42:18;;;;;;;3.85;1.30;;;;;;;;;;5053270;28;20410;-76
2021/03/06 08:44:44;;;;;;;10.00;2.13;;;;;;;;;;5071546;28;20441;-75
2021/03/06 08:47:11;;;;;;;6.85;1.75;;;;;;;;;;5071302;28;20020;-76
2021/03/06 08:49:37;;;;;;;4.75;1.67;;;;;;;;;;5053282;28;20020;-76
2021/03/06 08:52:04;;;;;;;4.78;1.20;;;;;;;;;;5053222;28;20067;-76
2021/03/06 08:54:40;;;;;;;5.20;1.30;;;;;;;;;;5053020;28;20059;-76
2021/03/06 08:57:06;;;;;;;7.72;1.38;;;;;;;;;;5053290;28;20020;-75
2021/03/06 08:59:39;;;;;;;8.05;1.50;;;;;;;;;;5053236;28;20359;-75
2021/03/06 09:02:15;;;;;;;5.32;1.55;;;;;;;;;;5071096;28;20019;-75
2021/03/06 09:04:41;;;;;;;4.32;0.98;;;;;;;;;;5053138;28;20021;-76
2021/03/06 09:07:25;;;;;;;7.90;2.08;;;;;;;;;;5071345;28;20028;-76
2021/03/06 09:09:51;;;;;;;11.27;1.77;;;;;;;;;;5053430;28;20036;-76
2021/03/06 09:12:17;;;;;;;6.70;1.73;;;;;;;;;;5053447;28;20460;-77
2021/03/06 09:14:43;;;;;;;9.43;2.17;;;;;;;;;;5073605;28;20024;-77
2021/03/06 09:17:10;;;;;;;7.30;2.20;;;;;;;;;;5074847;28;20016;-78
2021/03/06 09:19:36;;;;;;;10.20;2.58;;;;;;;;;;5056814;28;20017;-78
2021/03/06 09:22:04;;;;;;;12.63;2.53;;;;;;;;;;5057131;28;20377;-77
2021/03/06 09:24:50;;;;;;;10.52;2.60;;;;;;;;;;5056764;28;20031;-78
2021/03/06 09:27:16;;;;;;;7.68;1.45;;;;;;;;;;5075060;28;20058;-78
2021/03/06 09:29:43;;;;;;;7.28;1.85;;;;;;;;;;5056559;28;20040;-78
2021/03/06 09:32:09;;;;;;;5.00;1.48;;;;;;;;;;5074634;28;20044;-78
2021/03/06 09:34:36;;;;;;;4.80;1.33;;;;;;;;;;5056282;28;20028;-78
2021/03/06 09:37:14;;;;;;;6.47;1.15;;;;;;;;;;5056579;28;20429;-78
2021/03/06 09:39:40;;;;;;;7.15;1.70;;;;;;;;;;5056488;28;20021;-78
2021/03/06 09:42:06;;;;;;;6.53;0.93;;;;;;;;;;5057067;28;20456;-78
2021/03/06 09:44:32;;;;;;;5.13;1.00;;;;;;;;;;5056476;28;20103;-78
2021/03/06 09:47:00;;;;;;;4.97;1.05;;;;;;;;;;5074666;28;20031;-77
2021/03/06 09:49:33;;;;;;;3.20;0.80;;;;;;;;;;5056386;28;20055;-78
2021/03/06 09:51:59;;;;;;;4.20;0.90;;;;;;;;;;5056183;28;20040;-77
2021/03/06 09:54:26;;;;;;;8.18;1.10;;;;;;;;;;5056221;28;20074;-77
2021/03/06 09:56:53;;;;;;;2.90;0.73;;;;;;;;;;5056471;28;20576;-76
2021/03/06 09:59:20;;;;;;;8.55;1.23;;;;;;;;;;5056011;28;20055;-77
2021/03/06 10:01:47;;;;;;;5.60;0.85;;;;;;;;;;5055633;28;20345;-78
2021/03/06 10:04:13;;;;;;;2.60;0.70;;;;;;;;;;5055505;28;20048;-76
2021/03/06 10:06:40;;;;;;;5.10;0.80;;;;;;;;;;5055279;28;20024;-77
2021/03/06 10:09:07;;;;;;;2.63;0.90;;;;;;;;;;5055628;28;20094;-78
2021/03/06 10:11:38;;;;;;;5.85;1.48;;;;;;;;;;5055453;28;20025;-76
2021/03/06 10:14:05;;;;;;;3.47;1.10;;;;;;;;;;5073088;28;20031;-77
2021/03/06 10:16:51;;;;;;;4.90;1.33;;;;;;;;;;5055121;28;20027;-77
2021/03/06 10:19:18;;;;;;;10.27;1.30;;;;;;;;;;5055229;28;20021;-77
2021/03/06 10:21:57;;;;;;;6.68;1.27;;;;;;;;;;5055012;28;20017;-77
2021/03/06 10:24:23;;;;;;;4.97;1.30;;;;;;;;;;5054604;28;20020;-77
2021/03/06 10:26:59;;;;;;;6.05;1.08;;;;;;;;;;5054995;28;20365;-78
2021/03/06 10:29:26;;;;;;;6.07;1.40;;;;;;;;;;5054866;28;20095;-77
2021/03/06 10:31:55;;;;;;;7.57;1.30;;;;;;;;;;5054648;28;20025;-77
2021/03/06 10:34:28;;;;;;;3.35;1.58;;;;;;;;;;5072410;28;20488;-77
2021/03/06 10:37:13;;;;;;;6.05;1.10;;;;;;;;;;5072836;28;20024;-77
2021/03/06 10:39:54;;;;;;;8.63;1.30;;;;;;;;;;5055365;28;20013;-77
2021/03/06 10:42:21;;;;;;;3.10;1.00;;;;;;;;;;5073276;28;20035;-77
2021/03/06 10:44:47;;;;;;;6.25;1.42;;;;;;;;;;5055494;28;20021;-77
2021/03/06 10:47:13;;;;;;;3.85;1.08;;;;;;;;;;5055400;28;20040;-78
2021/03/06 10:49:40;;;;;;;6.78;0.98;;;;;;;;;;5072527;28;20464;-75
2021/03/06 10:52:11;;;;;;;4.40;1.33;;;;;;;;;;5071841;28;20403;-76
2021/03/06 10:54:50;;;;;;;3.20;0.93;;;;;;;;;;5053882;28;20020;-76
2021/03/06 10:57:16;;;;;;;2.92;1.13;;;;;;;;;;5053315;28;20025;-74
2021/03/06 10:59:43;;;;;;;5.82;1.15;;;;;;;;;;5035051;28;20020;-78
2021/03/06 11:02:22;;;;;;;3.38;0.98;;;;;;;;;;5060601;28;20047;-76
2021/03/06 11:04:48;;;;;;;2.80;1.33;;;;;;;;;;5053231;28;20369;-76
2021/03/06 11:07:14;;;;;;;3.70;0.65;;;;;;;;;;5071861;28;20024;-76
2021/03/06 11:09:40;;;;;;;4.75;1.20;;;;;;;;;;5071636;28;20012;-76
2021/03/06 11:12:19;;;;;;;4.20;1.77;;;;;;;;;;5054432;28;20017;-77
2021/03/06 11:14:45;;;;;;;2.10;0.60;;;;;;;;;;5054744;28;20024;-75
2021/03/06 11:17:15;;;;;;;4.47;0.80;;;;;;;;;;5072476;28;20059;-76
2021/03/06 11:19:42;;;;;;;2.55;0.57;;;;;;;;;;5054563;28;20025;-78
2021/03/06 11:22:09;;;;;;;4.28;0.82;;;;;;;;;;5072768;28;20052;-77
2021/03/06 11:24:35;;;;;;;4.53;0.88;;;;;;;;;;5054259;28;20023;-76
2021/03/06 11:27:01;;;;;;;2.42;0.77;;;;;;;;;;5054732;28;20410;-77
2021/03/06 11:29:28;;;;;;;2.30;0.73;;;;;;;;;;5054498;28;20044;-78
2021/03/06 11:31:55;;;;;;;4.05;0.90;;;;;;;;;;5053531;28;20028;-78
2021/03/06 11:34:21;;;;;;;5.38;1.05;;;;;;;;;;5071437;28;20452;-78
2021/03/06 11:36:47;;;;;;;7.03;1.13;;;;;;;;;;5052874;28;20413;-78
2021/03/06 11:39:13;;;;;;;4.28;0.90;;;;;;;;;;5053539;28;20025;-75
2021/03/06 11:41:40;;;;;;;5.55;1.40;;;;;;;;;;5071402;28;20460;-77
2021/03/06 11:44:07;;;;;;;3.05;0.60;;;;;;;;;;5053586;28;20415;-77
2021/03/06 11:46:33;;;;;;;4.75;0.90;;;;;;;;;;5053089;28;20021;-77
2021/03/06 11:48:59;;;;;;;5.65;1.17;;;;;;;;;;5050718;28;20021;-77
2021/03/06 11:51:25;;;;;;;6.25;1.05;;;;;;;;;;5070650;28;20051;-78
2021/03/06 11:53:51;;;;;;;3.35;0.80;;;;;;;;;;5071597;28;20039;-77
2021/03/06 11:56:17;;;;;;;2.92;0.68;;;;;;;;;;5053082;28;20429;-77
2021/03/06 11:58:43;;;;;;;5.97;1.48;;;;;;;;;;5052797;28;20009;-77
2021/03/06 12:01:09;;;;;;;6.30;0.98;;;;;;;;;;5053137;28;20453;-76
2021/03/06 12:03:35;;;;;;;2.83;0.90;;;;;;;;;;5070608;28;20024;-78
2021/03/06 12:06:01;;;;;;;3.70;1.00;;;;;;;;;;5071212;28;20028;-77
2021/03/06 12:13:49;;;;;;;61.65;43.72;;;18.10;75.80;;;;;;5090701;27;20348;-84
2021/03/06 12:16:15;;;;;;;63.90;41.38;;;19.10;58.80;;;;;;5071864;28;20028;-85
2021/03/06 12:18:40;;;;;;;59.78;40.97;;;18.90;59.20;;;;;;5055035;28;20044;-84
2021/03/06 12:21:06;;;;;;;59.05;41.92;;;18.90;59.00;;;;;;5069031;28;20070;-84
2021/03/06 12:23:31;;;;;;;53.72;41.45;;;18.90;59.00;;;;;;5067761;28;20491;-85
2021/03/06 12:25:57;;;;;;;61.60;40.80;;;18.80;59.20;;;;;;5069826;28;20145;-87
2021/03/06 12:28:23;;;;;;;45.20;36.92;;;18.80;59.20;;;;;;5071092;28;20099;-88
2021/03/06 12:30:48;;;;;;;51.40;37.80;;;18.90;58.20;;;;;;5074647;28;20008;-89
2021/03/06 12:33:14;;;;;;;52.70;38.00;;;18.90;59.10;;;;;;5072959;28;20023;-88
2021/03/06 12:35:39;;;;;;;53.03;40.15;;;19.20;58.40;;;;;;5069318;28;20021;-89
2021/03/06 12:38:05;;;;;;;49.53;38.53;;;19.20;58.20;;;;;;5069982;28;20028;-89
2021/03/06 12:40:31;;;;;;;48.42;33.95;;;19.20;58.70;;;;;;5069617;28;20094;-88
2021/03/06 12:42:56;;;;;;;56.58;36.47;;;19.20;57.90;;;;;;5072306;28;20032;-87
2021/03/06 12:45:22;;;;;;;51.25;35.53;;;19.10;59.80;;;;;;5073822;28;20029;-88
2021/03/06 12:47:47;;;;;;;48.33;34.30;;;19.40;57.80;;;;;;5073615;28;20021;-91
2021/03/06 12:50:15;;;;;;;47.65;33.42;;;19.10;58.20;;;;;;5074002;28;20021;-86
2021/03/06 12:52:41;;;;;;;46.53;32.78;;;19.30;57.70;;;;;;5073044;28;20017;-86
2021/03/06 12:55:07;;;;;;;43.00;32.67;;;19.00;58.60;;;;;;5074191;28;20021;-82
2021/03/06 12:57:33;;;;;;;48.90;33.85;;;19.00;58.80;;;;;;5071843;28;20025;-83
2021/03/06 12:59:59;;;;;;;41.85;30.67;;;19.00;58.80;;;;;;5071000;28;20021;-83
2021/03/06 13:02:24;;;;;;;55.63;27.45;;;19.00;58.90;;;;;;5072876;28;20043;-82
2021/03/06 13:04:50;;;;;;;34.28;25.98;;;19.30;56.80;;;;;;5072625;28;20058;-82
2021/03/06 13:07:15;;;;;;;36.03;26.65;;;19.00;57.30;;;;;;5072587;28;20111;-82
2021/03/06 13:09:41;;;;;;;34.88;24.25;;;19.20;56.30;;;;;;5071989;28;20033;-82
2021/03/06 13:12:07;;;;;;;41.58;26.40;;;19.30;56.00;;;;;;5072015;28;20052;-82
2021/03/06 13:14:32;;;;;;;34.15;24.15;;;19.30;55.90;;;;;;5073401;28;20020;-83
2021/03/06 13:16:58;;;;;;;35.63;24.85;;;19.00;56.50;;;;;;5073799;28;20517;-82
2021/03/06 13:19:24;;;;;;;41.63;25.27;;;18.90;56.80;;;;;;5075547;28;20016;-82
2021/03/06 13:21:50;;;;;;;39.65;25.98;;;18.80;57.30;;;;;;5075738;28;20043;-82
2021/03/06 13:24:16;;;;;;;35.05;24.17;;;18.70;57.90;;;;;;5085955;28;20021;-82
2021/03/06 13:26:41;;;;;;;38.05;23.02;;;18.70;57.80;;;;;;5062045;28;20013;-82
2021/03/06 13:29:07;;;;;;;30.85;21.98;;;18.70;57.80;;;;;;5062420;28;20034;-82
2021/03/06 13:31:32;;;;;;;29.17;21.30;;;18.60;57.70;;;;;;5062573;28;20062;-82
2021/03/06 13:33:58;;;;;;;33.53;21.38;;;18.60;57.90;;;;;;5080242;28;20107;-81
2021/03/06 13:36:23;;;;;;;34.80;21.50;;;18.70;57.70;;;;;;5061997;28;20066;-82
2021/03/06 13:38:49;;;;;;;31.23;20.17;;;18.50;57.40;;;;;;5061564;28;20025;-81
2021/03/06 13:41:15;;;;;;;30.63;22.75;;;18.60;57.40;;;;;;5079504;28;20028;-81
2021/03/06 13:43:41;;;;;;;29.77;20.73;;;18.60;57.40;;;;;;5061151;28;20028;-82
2021/03/06 13:46:06;;;;;;;27.48;18.85;;;18.60;57.10;;;;;;5062639;28;20028;-83
2021/03/06 13:48:32;;;;;;;26.90;20.10;;;18.60;57.90;;;;;;5061568;28;20012;-83
2021/03/06 13:50:57;;;;;;;29.98;19.65;;;19.00;57.10;;;;;;5061917;28;20065;-84
2021/03/06 13:53:23;;;;;;;27.88;19.15;;;18.90;58.10;;;;;;5062154;28;20043;-86
2021/03/06 13:55:49;;;;;;;27.15;18.33;;;19.60;56.40;;;;;;5062820;28;20091;-88
2021/03/06 13:58:14;;;;;;;25.02;18.70;;;19.60;56.10;;;;;;5062561;28;20012;-86
2021/03/06 14:00:40;;;;;;;25.67;17.52;;;19.60;56.20;;;;;;5061497;28;20013;-87
2021/03/06 14:03:05;;;;;;;24.48;17.73;;;19.60;56.50;;;;;;5061395;28;20047;-86
2021/03/06 14:05:31;;;;;;;24.60;18.20;;;19.50;56.70;;;;;;5063398;28;20015;-88
2021/03/06 14:07:57;;;;;;;25.00;17.63;;;19.60;56.50;;;;;;5063331;28;20509;-87
2021/03/06 14:10:25;;;;;;;28.02;17.85;;;19.60;56.90;;;;;;5081165;28;20024;-86
2021/03/06 14:12:55;;;;;;;26.90;17.65;;;19.50;57.00;;;;;;5062594;28;20385;-87
2021/03/06 14:15:22;;;;;;;23.58;17.23;;;19.40;57.50;;;;;;5059817;28;20012;-86
2021/03/06 14:17:47;;;;;;;27.02;18.33;;;19.20;57.60;;;;;;5080319;28;20044;-87
2021/03/06 14:20:13;;;;;;;23.73;15.23;;;19.20;58.10;;;;;;5062506;28;20032;-85
2021/03/06 14:22:39;;;;;;;25.35;16.27;;;19.60;57.50;;;;;;5080741;28;20035;-86
2021/03/06 14:25:06;;;;;;;26.33;16.08;;;19.50;58.10;;;;;;5065650;28;20048;-93
2021/03/06 14:27:32;;;;;;;22.98;16.05;;;19.50;59.40;;;;;;5065255;28;20027;-92